createdAt,value
2023-02-14T00:00:13.717Z,190
2023-02-14T00:00:43.390Z,189
2023-02-14T00:01:14.477Z,189
2023-02-14T00:01:46.430Z,141
2023-02-14T00:02:16.913Z,62
2023-02-14T00:02:49.039Z,66
2023-02-14T00:03:18.533Z,79
2023-02-14T00:03:49.768Z,77
2023-02-14T00:04:20.604Z,73
2023-02-14T00:04:51.308Z,69
2023-02-14T00:05:22.647Z,68
2023-02-14T00:05:53.083Z,68
2023-02-14T00:06:24.389Z,67
2023-02-14T00:06:55.407Z,67
2023-02-14T00:07:26.463Z,67
2023-02-14T00:07:57.128Z,75
2023-02-14T00:08:28.511Z,60
2023-02-14T00:08:59.502Z,57
2023-02-14T00:09:30.502Z,56
2023-02-14T00:10:01.711Z,56
2023-02-14T00:10:32.185Z,56
2023-02-14T00:11:03.220Z,52
2023-02-14T00:11:35.101Z,71
2023-02-14T00:12:05.553Z,91
2023-02-14T00:12:36.583Z,74
2023-02-14T00:13:07.414Z,64
2023-02-14T00:13:38.466Z,65
2023-02-14T00:14:09.390Z,64
2023-02-14T00:14:40.441Z,64
2023-02-14T00:15:12.362Z,64
2023-02-14T00:15:42.441Z,63
2023-02-14T00:16:13.928Z,51
2023-02-14T00:16:44.502Z,46
2023-02-14T00:17:15.642Z,41
2023-02-14T00:17:46.438Z,41
2023-02-14T00:18:19.636Z,41
2023-02-14T00:18:48.451Z,41
2023-02-14T00:19:19.581Z,41
2023-02-14T00:19:50.238Z,41
2023-02-14T00:20:22.195Z,41
2023-02-14T00:20:52.358Z,41
2023-02-14T00:21:23.713Z,41
2023-02-14T00:21:54.577Z,41
2023-02-14T00:22:25.349Z,41
2023-02-14T00:22:56.519Z,41
2023-02-14T00:23:27.213Z,41
2023-02-14T00:23:58.400Z,41
2023-02-14T00:24:29.429Z,41
2023-02-14T00:25:00.842Z,41
2023-02-14T00:25:31.363Z,41
2023-02-14T00:26:02.285Z,41
2023-02-14T00:26:33.521Z,41
2023-02-14T00:27:04.221Z,41
2023-02-14T00:27:35.439Z,41
2023-02-14T00:28:06.540Z,41
2023-02-14T00:28:37.535Z,41
2023-02-14T00:29:08.222Z,41
2023-02-14T00:29:39.552Z,41
2023-02-14T00:30:11.470Z,41
2023-02-14T00:30:41.594Z,41
2023-02-14T00:31:12.887Z,41
2023-02-14T00:31:43.610Z,41
2023-02-14T00:32:14.200Z,41
2023-02-14T00:32:45.534Z,41
2023-02-14T00:33:17.439Z,41
2023-02-14T00:33:47.189Z,85
2023-02-14T00:34:20.308Z,130
2023-02-14T00:34:49.404Z,144
2023-02-14T00:35:21.448Z,162
2023-02-14T00:35:51.223Z,221
2023-02-14T00:36:22.797Z,219
2023-02-14T00:36:53.230Z,241
2023-02-14T00:37:24.581Z,260
2023-02-14T00:37:55.443Z,264
2023-02-14T00:38:26.426Z,265
2023-02-14T00:38:57.572Z,265
2023-02-14T00:39:28.198Z,260
2023-02-14T00:39:59.437Z,267
2023-02-14T00:40:30.620Z,272
2023-02-14T00:41:01.522Z,270
2023-02-14T00:41:32.714Z,272
2023-02-14T00:42:03.526Z,272
2023-02-14T00:42:34.282Z,271
2023-02-14T00:43:05.402Z,272
2023-02-14T00:43:36.621Z,272
2023-02-14T00:44:07.581Z,272
2023-02-14T00:44:38.519Z,272
2023-02-14T00:45:10.550Z,272
2023-02-14T00:45:40.804Z,272
2023-02-14T00:46:11.691Z,272
2023-02-14T00:46:42.479Z,273
2023-02-14T00:47:13.399Z,273
2023-02-14T00:47:44.242Z,273
2023-02-14T00:48:15.442Z,273
2023-02-14T00:48:46.441Z,287
2023-02-14T00:49:17.521Z,296
2023-02-14T00:49:48.400Z,296
2023-02-14T00:50:19.853Z,296
2023-02-14T00:50:50.627Z,296
2023-02-14T00:51:21.647Z,296
2023-02-14T00:51:52.653Z,296
2023-02-14T00:52:23.660Z,296
2023-02-14T00:52:54.298Z,294
2023-02-14T00:53:25.642Z,267
2023-02-14T00:53:56.712Z,248
2023-02-14T00:54:27.622Z,261
2023-02-14T00:54:58.502Z,271
2023-02-14T00:55:30.140Z,272
2023-02-14T00:56:01.141Z,272
2023-02-14T00:56:31.838Z,272
2023-02-14T00:57:02.588Z,272
2023-02-14T00:57:33.278Z,273
2023-02-14T00:58:04.280Z,271
2023-02-14T00:58:35.637Z,260
2023-02-14T00:59:06.241Z,119
2023-02-14T00:59:37.466Z,130
2023-02-14T01:00:10.331Z,164
2023-02-14T01:00:39.496Z,175
2023-02-14T01:01:10.778Z,172
2023-02-14T01:01:41.602Z,164
2023-02-14T01:02:12.761Z,146
2023-02-14T01:02:43.711Z,123
2023-02-14T01:03:14.600Z,121
2023-02-14T01:03:45.807Z,119
2023-02-14T01:04:16.692Z,116
2023-02-14T01:04:49.250Z,116
2023-02-14T01:05:19.081Z,116
2023-02-14T01:05:50.901Z,228
2023-02-14T01:06:20.709Z,237
2023-02-14T01:06:51.921Z,237
2023-02-14T01:07:22.948Z,237
2023-02-14T01:07:53.668Z,238
2023-02-14T01:08:25.008Z,238
2023-02-14T01:08:55.736Z,239
2023-02-14T01:09:26.770Z,250
2023-02-14T01:09:57.317Z,237
2023-02-14T01:10:29.137Z,235
2023-02-14T01:10:59.811Z,236
2023-02-14T01:11:30.627Z,254
2023-02-14T01:12:01.702Z,259
2023-02-14T01:12:32.318Z,262
2023-02-14T01:13:03.368Z,263
2023-02-14T01:13:34.582Z,270
2023-02-14T01:14:05.756Z,277
2023-02-14T01:14:36.400Z,279
2023-02-14T01:15:08.186Z,347
2023-02-14T01:15:38.399Z,40
2023-02-14T01:16:09.867Z,22
2023-02-14T01:16:40.577Z,11
2023-02-14T01:17:11.478Z,340
2023-02-14T01:17:42.612Z,334
2023-02-14T01:18:13.416Z,330
2023-02-14T01:18:44.740Z,331
2023-02-14T01:19:15.568Z,334
2023-02-14T01:19:46.541Z,334
2023-02-14T01:20:17.883Z,342
2023-02-14T01:20:48.543Z,343
2023-02-14T01:21:20.301Z,343
2023-02-14T01:21:50.708Z,336
2023-02-14T01:22:21.362Z,301
2023-02-14T01:22:52.661Z,222
2023-02-14T01:23:23.709Z,235
2023-02-14T01:23:54.605Z,234
2023-02-14T01:24:26.104Z,247
2023-02-14T01:24:56.508Z,238
2023-02-14T01:25:27.918Z,265
2023-02-14T01:25:58.584Z,259
2023-02-14T01:26:29.601Z,261
2023-02-14T01:27:00.447Z,276
2023-02-14T01:27:31.548Z,269
2023-02-14T01:28:02.645Z,275
2023-02-14T01:28:33.480Z,274
2023-02-14T01:29:04.677Z,277
2023-02-14T01:29:35.631Z,283
2023-02-14T01:30:07.697Z,283
2023-02-14T01:30:37.725Z,299
2023-02-14T01:31:08.621Z,300
2023-02-14T01:31:39.763Z,300
2023-02-14T01:32:10.366Z,300
2023-02-14T01:32:41.630Z,300
2023-02-14T01:33:12.588Z,300
2023-02-14T01:33:43.734Z,300
2023-02-14T01:34:14.680Z,295
2023-02-14T01:34:45.585Z,294
2023-02-14T01:35:17.268Z,293
2023-02-14T01:35:47.631Z,289
2023-02-14T01:36:20.165Z,289
2023-02-14T01:36:49.678Z,289
2023-02-14T01:37:21.561Z,288
2023-02-14T01:37:51.381Z,289
2023-02-14T01:38:22.639Z,288
2023-02-14T01:38:53.639Z,287
2023-02-14T01:39:24.604Z,266
2023-02-14T01:39:55.401Z,234
2023-02-14T01:40:26.945Z,231
2023-02-14T01:40:58.371Z,205
2023-02-14T01:41:28.560Z,181
2023-02-14T01:41:59.783Z,177
2023-02-14T01:42:30.760Z,97
2023-02-14T01:43:01.703Z,56
2023-02-14T01:43:32.873Z,54
2023-02-14T01:44:03.707Z,50
2023-02-14T01:44:34.792Z,44
2023-02-14T01:45:06.350Z,41
2023-02-14T01:45:37.012Z,41
2023-02-14T01:46:07.766Z,41
2023-02-14T01:46:38.713Z,38
2023-02-14T01:47:09.807Z,33
2023-02-14T01:47:40.465Z,33
2023-02-14T01:48:11.448Z,33
2023-02-14T01:48:42.923Z,33
2023-02-14T01:49:13.893Z,33
2023-02-14T01:49:44.840Z,33
2023-02-14T01:50:16.104Z,32
2023-02-14T01:50:46.789Z,33
2023-02-14T01:51:17.566Z,48
2023-02-14T01:51:48.474Z,57
2023-02-14T01:52:19.748Z,78
2023-02-14T01:52:50.843Z,69
2023-02-14T01:53:21.494Z,67
2023-02-14T01:53:52.839Z,64
2023-02-14T01:54:23.926Z,63
2023-02-14T01:54:54.891Z,63
2023-02-14T01:55:25.947Z,54
2023-02-14T01:55:56.777Z,48
2023-02-14T01:56:27.642Z,41
2023-02-14T01:56:58.863Z,181
2023-02-14T01:57:29.882Z,304
2023-02-14T01:58:00.864Z,10
2023-02-14T01:58:31.925Z,23
2023-02-14T01:59:02.575Z,2
2023-02-14T01:59:33.652Z,283
2023-02-14T02:00:05.719Z,207
2023-02-14T02:00:35.798Z,201
2023-02-14T02:01:06.883Z,215
2023-02-14T02:01:37.567Z,244
2023-02-14T02:02:08.802Z,245
2023-02-14T02:02:39.653Z,237
2023-02-14T02:03:10.782Z,217
2023-02-14T02:03:41.764Z,222
2023-02-14T02:04:12.684Z,215
2023-02-14T02:04:43.630Z,249
2023-02-14T02:05:15.276Z,259
2023-02-14T02:05:45.492Z,269
2023-02-14T02:06:16.846Z,272
2023-02-14T02:06:47.838Z,273
2023-02-14T02:07:18.790Z,273
2023-02-14T02:07:51.168Z,269
2023-02-14T02:08:20.729Z,263
2023-02-14T02:08:52.867Z,235
2023-02-14T02:09:22.906Z,204
2023-02-14T02:09:54.092Z,162
2023-02-14T02:10:25.287Z,261
2023-02-14T02:10:55.569Z,309
2023-02-14T02:11:27.414Z,309
2023-02-14T02:11:57.736Z,310
2023-02-14T02:12:30.807Z,310
2023-02-14T02:12:59.924Z,311
2023-02-14T02:13:30.508Z,51
2023-02-14T02:14:01.857Z,332
2023-02-14T02:14:32.846Z,339
2023-02-14T02:15:05.001Z,340
2023-02-14T02:15:34.622Z,339
2023-02-14T02:16:05.555Z,348
2023-02-14T02:16:36.856Z,241
2023-02-14T02:17:07.659Z,203
2023-02-14T02:17:38.723Z,174
2023-02-14T02:18:09.604Z,134
2023-02-14T02:18:40.965Z,133
2023-02-14T02:19:11.812Z,159
2023-02-14T02:19:42.914Z,190
2023-02-14T02:20:14.616Z,170
2023-02-14T02:20:44.962Z,164
2023-02-14T02:21:15.591Z,197
2023-02-14T02:21:46.524Z,197
2023-02-14T02:22:17.907Z,200
2023-02-14T02:22:48.627Z,187
2023-02-14T02:23:20.045Z,188
2023-02-14T02:23:50.987Z,189
2023-02-14T02:24:21.826Z,237
2023-02-14T02:24:52.642Z,233
2023-02-14T02:25:24.444Z,226
2023-02-14T02:25:54.817Z,228
2023-02-14T02:26:26.015Z,222
2023-02-14T02:26:56.587Z,223
2023-02-14T02:27:27.965Z,211
2023-02-14T02:27:58.992Z,205
2023-02-14T02:28:29.868Z,177
2023-02-14T02:29:00.880Z,183
2023-02-14T02:29:31.961Z,177
2023-02-14T02:30:04.043Z,177
2023-02-14T02:30:33.950Z,161
2023-02-14T02:31:05.129Z,141
2023-02-14T02:31:35.896Z,124
2023-02-14T02:32:07.298Z,126
2023-02-14T02:32:37.853Z,125
2023-02-14T02:33:08.646Z,119
2023-02-14T02:33:39.643Z,63
2023-02-14T02:34:10.852Z,124
2023-02-14T02:34:41.866Z,102
2023-02-14T02:35:13.685Z,94
2023-02-14T02:35:43.682Z,93
2023-02-14T02:36:15.313Z,111
2023-02-14T02:36:45.644Z,150
2023-02-14T02:37:16.853Z,172
2023-02-14T02:37:47.688Z,179
2023-02-14T02:38:18.884Z,179
2023-02-14T02:38:49.928Z,185
2023-02-14T02:39:21.772Z,200
2023-02-14T02:39:51.655Z,204
2023-02-14T02:40:24.378Z,204
2023-02-14T02:40:53.908Z,202
2023-02-14T02:41:25.362Z,191
2023-02-14T02:41:55.959Z,191
2023-02-14T02:42:26.817Z,185
2023-02-14T02:42:58.616Z,172
2023-02-14T02:43:28.708Z,172
2023-02-14T02:43:59.679Z,172
2023-02-14T02:44:30.660Z,171
2023-02-14T02:45:02.954Z,171
2023-02-14T02:45:33.237Z,170
2023-02-14T02:46:04.135Z,148
2023-02-14T02:46:35.344Z,110
2023-02-14T02:47:05.875Z,105
2023-02-14T02:47:36.790Z,55
2023-02-14T02:48:08.005Z,46
2023-02-14T02:48:38.613Z,43
2023-02-14T02:49:10.428Z,45
2023-02-14T02:49:40.727Z,46
2023-02-14T02:50:12.161Z,46
2023-02-14T02:50:43.094Z,44
2023-02-14T02:51:13.866Z,44
2023-02-14T02:51:44.683Z,41
2023-02-14T02:52:15.883Z,38
2023-02-14T02:52:47.106Z,38
2023-02-14T02:53:17.705Z,37
2023-02-14T02:53:49.044Z,14
2023-02-14T02:54:19.694Z,0
2023-02-14T02:54:50.643Z,343
2023-02-14T02:55:22.536Z,347
2023-02-14T02:55:53.747Z,349
2023-02-14T02:56:23.826Z,356
2023-02-14T02:56:54.909Z,38
2023-02-14T02:57:25.741Z,48
2023-02-14T02:57:56.745Z,41
2023-02-14T02:58:27.882Z,40
2023-02-14T02:58:58.656Z,40
2023-02-14T02:59:29.954Z,40
2023-02-14T03:00:01.907Z,40
2023-02-14T03:00:31.803Z,40
2023-02-14T03:01:03.041Z,40
2023-02-14T03:01:34.133Z,41
2023-02-14T03:02:05.102Z,42
2023-02-14T03:02:35.866Z,42
2023-02-14T03:03:06.643Z,41
2023-02-14T03:03:38.083Z,40
2023-02-14T03:04:08.825Z,42
2023-02-14T03:04:39.828Z,41
2023-02-14T03:05:11.715Z,46
2023-02-14T03:05:42.130Z,107
2023-02-14T03:06:12.985Z,108
2023-02-14T03:06:44.236Z,107
2023-02-14T03:07:15.046Z,106
2023-02-14T03:07:46.132Z,105
2023-02-14T03:08:16.715Z,68
2023-02-14T03:08:47.996Z,321
2023-02-14T03:09:18.804Z,317
2023-02-14T03:09:50.147Z,316
2023-02-14T03:10:21.759Z,316
2023-02-14T03:10:53.212Z,316
2023-02-14T03:11:22.987Z,317
2023-02-14T03:11:54.168Z,316
2023-02-14T03:12:25.521Z,301
2023-02-14T03:12:56.116Z,302
2023-02-14T03:13:26.967Z,301
2023-02-14T03:13:58.122Z,301
2023-02-14T03:14:29.154Z,301
2023-02-14T03:15:00.170Z,301
2023-02-14T03:15:32.213Z,301
2023-02-14T03:16:02.167Z,302
2023-02-14T03:16:33.077Z,302
2023-02-14T03:17:04.132Z,302
2023-02-14T03:17:35.075Z,302
2023-02-14T03:18:05.972Z,302
2023-02-14T03:18:37.256Z,302
2023-02-14T03:19:07.802Z,301
2023-02-14T03:19:38.765Z,301
2023-02-14T03:20:10.314Z,301
2023-02-14T03:20:40.834Z,301
2023-02-14T03:21:12.004Z,301
2023-02-14T03:21:43.042Z,302
2023-02-14T03:22:14.068Z,302
2023-02-14T03:22:44.967Z,302
2023-02-14T03:23:16.033Z,302
2023-02-14T03:23:46.807Z,302
2023-02-14T03:24:18.248Z,302
2023-02-14T03:24:49.139Z,302
2023-02-14T03:25:20.854Z,302
2023-02-14T03:25:51.207Z,302
2023-02-14T03:26:21.869Z,302
2023-02-14T03:26:53.274Z,302
2023-02-14T03:27:24.114Z,302
2023-02-14T03:27:55.083Z,302
2023-02-14T03:28:26.068Z,301
2023-02-14T03:28:57.148Z,301
2023-02-14T03:29:27.886Z,301
2023-02-14T03:29:58.951Z,282
2023-02-14T03:30:31.167Z,281
2023-02-14T03:31:01.135Z,282
2023-02-14T03:31:32.101Z,285
2023-02-14T03:32:03.238Z,302
2023-02-14T03:32:34.222Z,12
2023-02-14T03:33:05.206Z,51
2023-02-14T03:33:35.897Z,48
2023-02-14T03:34:07.166Z,47
2023-02-14T03:34:38.203Z,195
2023-02-14T03:35:09.398Z,199
2023-02-14T03:35:40.075Z,199
2023-02-14T03:36:10.787Z,224
2023-02-14T03:36:42.034Z,228
2023-02-14T03:37:13.282Z,228
2023-02-14T03:37:44.092Z,228
2023-02-14T03:38:15.181Z,228
2023-02-14T03:38:46.273Z,228
2023-02-14T03:39:16.886Z,229
2023-02-14T03:39:48.042Z,230
2023-02-14T03:40:19.634Z,229
2023-02-14T03:40:50.055Z,229
2023-02-14T03:41:21.197Z,229
2023-02-14T03:41:52.141Z,230
2023-02-14T03:42:24.194Z,230
2023-02-14T03:42:54.299Z,230
2023-02-14T03:43:26.208Z,229
2023-02-14T03:43:56.427Z,229
2023-02-14T03:44:26.869Z,229
2023-02-14T03:44:58.083Z,227
2023-02-14T03:45:30.546Z,211
2023-02-14T03:46:00.306Z,205
2023-02-14T03:46:31.302Z,38
2023-02-14T03:47:02.269Z,23
2023-02-14T03:47:32.935Z,21
2023-02-14T03:48:03.929Z,20
2023-02-14T03:48:34.883Z,20
2023-02-14T03:49:06.134Z,19
2023-02-14T03:49:37.288Z,19
2023-02-14T03:50:08.174Z,19
2023-02-14T03:50:39.152Z,19
2023-02-14T03:51:10.258Z,19
2023-02-14T03:51:41.268Z,19
2023-02-14T03:52:12.311Z,19
2023-02-14T03:52:43.028Z,19
2023-02-14T03:53:14.044Z,19
2023-02-14T03:53:45.297Z,20
2023-02-14T03:54:16.546Z,21
2023-02-14T03:54:47.318Z,21
2023-02-14T03:55:18.449Z,73
2023-02-14T03:55:48.983Z,75
2023-02-14T03:56:19.883Z,60
2023-02-14T03:56:51.300Z,58
2023-02-14T03:57:22.284Z,229
2023-02-14T03:57:53.758Z,226
2023-02-14T03:58:24.331Z,229
2023-02-14T03:58:55.288Z,229
2023-02-14T03:59:26.069Z,229
2023-02-14T03:59:57.216Z,229
2023-02-14T04:00:29.514Z,229
2023-02-14T04:00:59.370Z,230
2023-02-14T04:01:30.300Z,230
2023-02-14T04:02:01.332Z,230
2023-02-14T04:02:32.148Z,172
2023-02-14T04:03:02.994Z,114
2023-02-14T04:03:34.434Z,119
2023-02-14T04:04:05.266Z,117
2023-02-14T04:04:36.449Z,116
2023-02-14T04:05:07.496Z,234
2023-02-14T04:05:38.128Z,219
2023-02-14T04:06:09.266Z,223
2023-02-14T04:06:39.965Z,223
2023-02-14T04:07:11.258Z,223
2023-02-14T04:07:41.973Z,221
2023-02-14T04:08:13.363Z,216
2023-02-14T04:08:44.482Z,211
2023-02-14T04:09:15.006Z,185
2023-02-14T04:09:46.631Z,165
2023-02-14T04:10:18.004Z,172
2023-02-14T04:10:48.081Z,192
2023-02-14T04:11:19.036Z,193
2023-02-14T04:11:49.963Z,193
2023-02-14T04:12:32.367Z,193
2023-02-14T04:12:52.635Z,193
2023-02-14T04:13:23.322Z,187
2023-02-14T04:13:55.313Z,184
2023-02-14T04:14:25.409Z,184
2023-02-14T04:14:58.332Z,184
2023-02-14T04:15:28.714Z,184
2023-02-14T04:15:58.764Z,184
2023-02-14T04:16:28.988Z,185
2023-02-14T04:16:59.932Z,190
2023-02-14T04:17:31.256Z,267
2023-02-14T04:18:02.360Z,269
2023-02-14T04:18:33.514Z,269
2023-02-14T04:19:04.073Z,273
2023-02-14T04:19:35.857Z,269
2023-02-14T04:20:07.073Z,274
2023-02-14T04:20:37.394Z,275
2023-02-14T04:21:08.326Z,274
2023-02-14T04:21:39.402Z,274
2023-02-14T04:22:10.050Z,274
2023-02-14T04:22:41.441Z,270
2023-02-14T04:23:12.043Z,274
2023-02-14T04:23:43.084Z,274
2023-02-14T04:24:14.164Z,273
2023-02-14T04:24:45.062Z,246
2023-02-14T04:25:16.593Z,250
2023-02-14T04:25:47.923Z,251
2023-02-14T04:26:18.354Z,252
2023-02-14T04:26:49.328Z,252
2023-02-14T04:27:20.372Z,253
2023-02-14T04:27:51.273Z,271
2023-02-14T04:28:22.310Z,272
2023-02-14T04:28:53.005Z,274
2023-02-14T04:29:24.347Z,274
2023-02-14T04:29:55.284Z,275
2023-02-14T04:30:27.380Z,275
2023-02-14T04:30:58.123Z,275
2023-02-14T04:31:28.187Z,275
2023-02-14T04:31:59.481Z,275
2023-02-14T04:32:30.266Z,273
2023-02-14T04:33:01.013Z,274
2023-02-14T04:33:32.002Z,274
2023-02-14T04:34:03.431Z,275
2023-02-14T04:34:34.350Z,275
2023-02-14T04:35:05.324Z,275
2023-02-14T04:35:36.114Z,274
2023-02-14T04:36:07.426Z,208
2023-02-14T04:36:38.533Z,203
2023-02-14T04:37:09.350Z,74
2023-02-14T04:37:40.442Z,36
2023-02-14T04:38:11.291Z,27
2023-02-14T04:38:42.043Z,70
2023-02-14T04:39:13.325Z,56
2023-02-14T04:39:44.393Z,50
2023-02-14T04:40:15.863Z,47
2023-02-14T04:40:46.227Z,47
2023-02-14T04:41:17.998Z,52
2023-02-14T04:41:48.523Z,48
2023-02-14T04:42:19.069Z,48
2023-02-14T04:42:50.816Z,48
2023-02-14T04:43:21.949Z,47
2023-02-14T04:43:52.207Z,11
2023-02-14T04:44:23.420Z,15
2023-02-14T04:44:54.481Z,100
2023-02-14T04:45:27.389Z,93
2023-02-14T04:45:56.755Z,45
2023-02-14T04:46:28.227Z,17
2023-02-14T04:46:58.113Z,12
2023-02-14T04:47:29.681Z,51
2023-02-14T04:48:00.356Z,35
2023-02-14T04:48:31.441Z,26
2023-02-14T04:49:02.232Z,15
2023-02-14T04:49:33.105Z,23
2023-02-14T04:50:04.546Z,23
2023-02-14T04:50:35.501Z,22
2023-02-14T04:51:06.344Z,21
2023-02-14T04:51:37.623Z,22
2023-02-14T04:52:08.362Z,12
2023-02-14T04:52:39.492Z,319
2023-02-14T04:53:10.463Z,235
2023-02-14T04:53:41.408Z,215
2023-02-14T04:54:12.444Z,219
2023-02-14T04:54:43.201Z,217
2023-02-14T04:55:14.957Z,218
2023-02-14T04:55:45.374Z,206
2023-02-14T04:56:16.432Z,206
2023-02-14T04:56:47.312Z,167
2023-02-14T04:57:18.497Z,167
2023-02-14T04:57:49.523Z,175
2023-02-14T04:58:20.688Z,154
2023-02-14T04:58:51.514Z,157
2023-02-14T04:59:24.437Z,157
2023-02-14T04:59:53.481Z,155
2023-02-14T05:00:25.707Z,155
2023-02-14T05:00:55.665Z,155
2023-02-14T05:01:26.704Z,155
2023-02-14T05:01:57.645Z,120
2023-02-14T05:02:28.323Z,83
2023-02-14T05:02:59.492Z,79
2023-02-14T05:03:30.370Z,87
2023-02-14T05:04:01.569Z,66
2023-02-14T05:04:32.172Z,94
2023-02-14T05:05:03.902Z,57
2023-02-14T05:05:34.154Z,53
2023-02-14T05:06:05.489Z,57
2023-02-14T05:06:36.382Z,50
2023-02-14T05:07:07.432Z,50
2023-02-14T05:07:38.403Z,343
2023-02-14T05:08:09.192Z,291
2023-02-14T05:08:40.371Z,265
2023-02-14T05:09:11.478Z,269
2023-02-14T05:09:42.390Z,273
2023-02-14T05:10:13.800Z,273
2023-02-14T05:10:44.484Z,260
2023-02-14T05:11:15.600Z,261
2023-02-14T05:11:46.717Z,254
2023-02-14T05:12:17.390Z,246
2023-02-14T05:12:48.423Z,246
2023-02-14T05:13:19.428Z,248
2023-02-14T05:13:50.489Z,261
2023-02-14T05:14:21.557Z,257
2023-02-14T05:14:52.460Z,263
2023-02-14T05:15:24.794Z,260
2023-02-14T05:15:54.930Z,262
2023-02-14T05:16:25.492Z,265
2023-02-14T05:16:57.403Z,267
2023-02-14T05:17:27.433Z,267
2023-02-14T05:17:59.761Z,267
2023-02-14T05:18:29.825Z,258
2023-02-14T05:19:00.958Z,263
2023-02-14T05:19:31.445Z,259
2023-02-14T05:20:02.908Z,262
2023-02-14T05:20:33.568Z,264
2023-02-14T05:21:04.500Z,265
2023-02-14T05:21:35.752Z,270
2023-02-14T05:22:06.500Z,277
2023-02-14T05:22:37.563Z,281
2023-02-14T05:23:08.523Z,283
2023-02-14T05:23:39.637Z,279
2023-02-14T05:24:10.318Z,280
2023-02-14T05:24:42.591Z,278
2023-02-14T05:25:13.191Z,270
2023-02-14T05:25:44.009Z,277
2023-02-14T05:26:14.260Z,278
2023-02-14T05:26:45.658Z,277
2023-02-14T05:27:16.180Z,272
2023-02-14T05:27:47.260Z,255
2023-02-14T05:28:18.323Z,229
2023-02-14T05:28:49.265Z,210
2023-02-14T05:29:21.157Z,205
2023-02-14T05:29:51.705Z,210
2023-02-14T05:30:23.930Z,217
2023-02-14T05:30:54.146Z,240
2023-02-14T05:31:25.049Z,241
2023-02-14T05:31:55.645Z,241
2023-02-14T05:32:26.302Z,253
2023-02-14T05:32:57.268Z,257
2023-02-14T05:33:28.256Z,261
2023-02-14T05:33:59.487Z,269
2023-02-14T05:34:30.478Z,279
2023-02-14T05:35:01.727Z,280
2023-02-14T05:35:32.461Z,274
2023-02-14T05:36:03.745Z,261
2023-02-14T05:36:34.671Z,246
2023-02-14T05:37:05.685Z,257
2023-02-14T05:37:36.677Z,239
2023-02-14T05:38:07.674Z,227
2023-02-14T05:38:38.202Z,227
2023-02-14T05:39:09.729Z,234
2023-02-14T05:39:40.934Z,235
2023-02-14T05:40:11.965Z,235
2023-02-14T05:40:42.750Z,237
2023-02-14T05:41:13.668Z,253
2023-02-14T05:41:44.587Z,306
2023-02-14T05:42:16.051Z,314
2023-02-14T05:42:46.941Z,316
2023-02-14T05:43:17.552Z,32
2023-02-14T05:43:48.588Z,37
2023-02-14T05:44:19.908Z,52
2023-02-14T05:44:50.282Z,54
2023-02-14T05:45:23.208Z,49
2023-02-14T05:45:53.189Z,84
2023-02-14T05:46:23.661Z,176
2023-02-14T05:46:54.381Z,180
2023-02-14T05:47:25.568Z,194
2023-02-14T05:47:56.678Z,231
2023-02-14T05:48:28.989Z,235
2023-02-14T05:48:58.318Z,243
2023-02-14T05:49:30.616Z,245
2023-02-14T05:50:00.999Z,251
2023-02-14T05:50:31.382Z,235
2023-02-14T05:51:02.989Z,259
2023-02-14T05:51:33.361Z,257
2023-02-14T05:52:04.697Z,248
2023-02-14T05:52:35.369Z,245
2023-02-14T05:53:06.555Z,250
2023-02-14T05:53:37.367Z,243
2023-02-14T05:54:10.853Z,196
2023-02-14T05:54:39.572Z,183
2023-02-14T05:55:11.704Z,191
2023-02-14T05:55:41.657Z,246
2023-02-14T05:56:12.561Z,215
2023-02-14T05:56:43.834Z,228
2023-02-14T05:57:14.805Z,219
2023-02-14T05:57:45.741Z,213
2023-02-14T05:58:17.036Z,236
2023-02-14T05:58:47.368Z,210
2023-02-14T05:59:18.693Z,216
2023-02-14T05:59:49.731Z,219
2023-02-14T06:00:21.804Z,197
2023-02-14T06:00:51.793Z,195
2023-02-14T06:01:23.001Z,196
2023-02-14T06:01:53.922Z,215
2023-02-14T06:02:24.476Z,208
2023-02-14T06:02:55.721Z,232
2023-02-14T06:03:26.364Z,233
2023-02-14T06:03:58.049Z,260
2023-02-14T06:04:28.746Z,238
2023-02-14T06:04:59.765Z,254
2023-02-14T06:05:31.395Z,261
2023-02-14T06:06:01.767Z,269
2023-02-14T06:06:33.107Z,269
2023-02-14T06:07:03.417Z,185
2023-02-14T06:07:34.708Z,38
2023-02-14T06:08:05.797Z,43
2023-02-14T06:08:36.807Z,62
2023-02-14T06:09:07.745Z,108
2023-02-14T06:09:38.413Z,107
2023-02-14T06:10:10.044Z,104
2023-02-14T06:10:40.597Z,54
2023-02-14T06:11:11.756Z,45
2023-02-14T06:11:42.647Z,28
2023-02-14T06:12:13.764Z,32
2023-02-14T06:12:44.693Z,31
2023-02-14T06:13:15.787Z,29
2023-02-14T06:13:46.451Z,2
2023-02-14T06:14:17.487Z,341
2023-02-14T06:14:48.771Z,325
2023-02-14T06:15:21.146Z,301
2023-02-14T06:15:50.852Z,294
2023-02-14T06:16:21.827Z,299
2023-02-14T06:16:52.446Z,292
2023-02-14T06:17:23.811Z,293
2023-02-14T06:17:54.775Z,294
2023-02-14T06:18:26.037Z,294
2023-02-14T06:18:56.468Z,294
2023-02-14T06:19:28.049Z,293
2023-02-14T06:20:00.005Z,290
2023-02-14T06:20:30.360Z,289
2023-02-14T06:21:02.348Z,290
2023-02-14T06:21:31.850Z,291
2023-02-14T06:22:02.830Z,348
2023-02-14T06:22:33.692Z,30
2023-02-14T06:23:04.565Z,31
2023-02-14T06:23:35.614Z,30
2023-02-14T06:24:06.687Z,5
2023-02-14T06:24:37.830Z,296
2023-02-14T06:25:09.111Z,274
2023-02-14T06:25:39.897Z,273
2023-02-14T06:26:10.765Z,273
2023-02-14T06:26:41.737Z,262
2023-02-14T06:27:12.849Z,252
2023-02-14T06:27:43.810Z,255
2023-02-14T06:28:14.833Z,255
2023-02-14T06:28:45.734Z,250
2023-02-14T06:29:16.787Z,242
2023-02-14T06:29:48.109Z,233
2023-02-14T06:30:20.001Z,229
2023-02-14T06:30:50.119Z,253
2023-02-14T06:31:21.246Z,261
2023-02-14T06:31:52.006Z,249
2023-02-14T06:32:22.564Z,248
2023-02-14T06:32:53.489Z,222
2023-02-14T06:33:24.599Z,235
2023-02-14T06:33:55.709Z,238
2023-02-14T06:34:26.848Z,209
2023-02-14T06:34:57.694Z,221
2023-02-14T06:35:29.574Z,225
2023-02-14T06:35:59.853Z,226
2023-02-14T06:36:30.947Z,239
2023-02-14T06:37:02.176Z,195
2023-02-14T06:37:32.771Z,210
2023-02-14T06:38:03.922Z,212
2023-02-14T06:38:34.609Z,216
2023-02-14T06:39:05.827Z,237
2023-02-14T06:39:37.147Z,237
2023-02-14T06:40:08.325Z,244
2023-02-14T06:40:38.880Z,258
2023-02-14T06:41:09.619Z,259
2023-02-14T06:41:40.956Z,258
2023-02-14T06:42:11.711Z,258
2023-02-14T06:42:42.981Z,261
2023-02-14T06:43:13.602Z,274
2023-02-14T06:43:45.254Z,252
2023-02-14T06:44:15.908Z,126
2023-02-14T06:44:46.920Z,133
2023-02-14T06:45:19.167Z,148
2023-02-14T06:45:49.131Z,244
2023-02-14T06:46:20.058Z,207
2023-02-14T06:46:51.038Z,246
2023-02-14T06:47:22.077Z,230
2023-02-14T06:47:53.467Z,233
2023-02-14T06:48:24.128Z,242
2023-02-14T06:48:55.119Z,244
2023-02-14T06:49:25.765Z,246
2023-02-14T06:49:56.956Z,246
2023-02-14T06:50:28.581Z,246
2023-02-14T06:50:59.002Z,246
2023-02-14T06:51:30.842Z,240
2023-02-14T06:52:01.029Z,238
2023-02-14T06:52:33.478Z,226
2023-02-14T06:53:02.907Z,249
2023-02-14T06:53:34.893Z,13
2023-02-14T06:54:05.013Z,17
2023-02-14T06:54:36.004Z,23
2023-02-14T06:55:07.410Z,22
2023-02-14T06:55:38.067Z,23
2023-02-14T06:56:09.075Z,25
2023-02-14T06:56:39.967Z,25
2023-02-14T06:57:11.096Z,25
2023-02-14T06:57:42.115Z,108
2023-02-14T06:58:12.818Z,98
2023-02-14T06:58:43.918Z,11
2023-02-14T06:59:14.676Z,10
2023-02-14T06:59:46.036Z,323
2023-02-14T07:00:18.135Z,194
2023-02-14T07:00:47.924Z,205
2023-02-14T07:01:18.693Z,220
2023-02-14T07:01:49.702Z,238
2023-02-14T07:02:23.500Z,217
2023-02-14T07:02:51.882Z,217
2023-02-14T07:03:22.690Z,203
2023-02-14T07:03:54.097Z,144
2023-02-14T07:04:25.079Z,140
2023-02-14T07:04:56.068Z,134
2023-02-14T07:05:27.684Z,135
2023-02-14T07:05:58.423Z,134
2023-02-14T07:06:29.086Z,134
2023-02-14T07:06:59.684Z,137
2023-02-14T07:07:30.654Z,137
2023-02-14T07:08:01.789Z,139
2023-02-14T07:08:33.315Z,139
2023-02-14T07:09:04.060Z,139
2023-02-14T07:09:35.066Z,139
2023-02-14T07:10:06.196Z,133
2023-02-14T07:10:36.996Z,108
2023-02-14T07:11:08.078Z,95